Time;durP1;ratioP1;P1;durP2;ratioP2;P2;SDS_P1;SDS_P2;PMS_P1;PMS_P2;Temp;Humidity;BMP_temperature;BMP_pressure;BME280_temperature;BME280_humidity;BME280_pressure;Samples;Min_cycle;Max_cycle;Signal;HPM_P1;HPM_P2
2022/07/14 00:00:24;;;;;;;2.20;1.02;;;21.70;90.00;;;;;;5011864;28;20407;-73
2022/07/14 00:02:50;;;;;;;2.30;0.82;;;21.60;90.00;;;;;;5012253;28;20058;-73
2022/07/14 00:05:16;;;;;;;4.18;1.13;;;21.40;90.40;;;;;;5012577;28;20038;-73
2022/07/14 00:07:42;;;;;;;5.47;1.27;;;21.30;91.00;;;;;;5011041;28;20036;-73
2022/07/14 00:10:09;;;;;;;3.95;1.88;;;21.10;91.60;;;;;;5012747;28;20033;-73
2022/07/14 00:12:35;;;;;;;1.55;1.02;;;21.20;91.80;;;;;;5011926;28;20035;-73
2022/07/14 00:15:02;;;;;;;3.05;1.30;;;21.10;91.70;;;;;;5011653;28;20387;-75
2022/07/14 00:17:28;;;;;;;2.47;1.38;;;21.00;92.00;;;;;;5011754;28;20030;-78
2022/07/14 00:19:55;;;;;;;2.65;1.23;;;21.00;92.50;;;;;;5011904;28;20418;-73
2022/07/14 00:22:21;;;;;;;2.47;1.33;;;21.00;92.50;;;;;;5012370;28;20040;-73
2022/07/14 00:24:48;;;;;;;2.35;1.20;;;21.00;92.60;;;;;;5011750;28;20041;-73
2022/07/14 00:27:14;;;;;;;1.95;1.17;;;20.80;93.00;;;;;;5007729;28;20398;-73
2022/07/14 00:29:40;;;;;;;3.72;1.10;;;20.70;93.40;;;;;;4993457;28;20121;-73
2022/07/14 00:32:07;;;;;;;3.15;1.17;;;20.70;93.90;;;;;;5011655;28;20057;-73
2022/07/14 00:34:34;;;;;;;2.17;1.50;;;20.60;93.80;;;;;;5010346;28;20038;-73
2022/07/14 00:37:00;;;;;;;2.63;1.23;;;20.60;94.00;;;;;;5011160;28;20038;-73
2022/07/14 00:39:26;;;;;;;3.58;1.35;;;20.60;94.00;;;;;;5011567;28;20030;-73
2022/07/14 00:41:53;;;;;;;2.08;1.35;;;20.60;94.00;;;;;;5011773;28;20037;-72
2022/07/14 00:44:19;;;;;;;4.20;1.48;;;20.60;94.10;;;;;;5011896;28;20037;-73
2022/07/14 00:46:46;;;;;;;4.07;2.00;;;20.50;94.30;;;;;;5010932;28;20030;-72
2022/07/14 00:49:12;;;;;;;2.35;1.30;;;20.40;94.90;;;;;;5011684;28;20029;-73
2022/07/14 00:51:38;;;;;;;2.75;1.80;;;20.30;95.50;;;;;;5010741;28;20033;-73
2022/07/14 00:54:04;;;;;;;2.83;1.52;;;20.20;96.20;;;;;;5007905;28;20069;-73
2022/07/14 00:56:30;;;;;;;2.78;1.13;;;20.10;96.50;;;;;;5010328;28;20041;-73
2022/07/14 00:58:57;;;;;;;2.85;1.42;;;20.00;96.80;;;;;;5011984;28;20037;-73
2022/07/14 01:01:23;;;;;;;3.70;1.50;;;20.00;97.20;;;;;;5010528;28;20030;-73
2022/07/14 01:03:49;;;;;;;3.17;1.10;;;19.90;97.50;;;;;;5012290;28;20194;-73
2022/07/14 01:06:15;;;;;;;2.60;1.73;;;19.90;97.80;;;;;;5010627;28;20034;-73
2022/07/14 01:08:41;;;;;;;3.20;1.52;;;20.00;97.70;;;;;;5011461;28;20034;-74
2022/07/14 01:11:08;;;;;;;3.50;1.40;;;19.90;97.80;;;;;;5011479;28;20041;-74
2022/07/14 01:13:36;;;;;;;4.20;1.13;;;19.70;98.30;;;;;;5010219;28;20049;-75
2022/07/14 01:16:04;;;;;;;2.75;1.30;;;19.60;98.60;;;;;;5010276;28;20049;-75
2022/07/14 01:18:31;;;;;;;2.50;1.40;;;19.50;99.00;;;;;;5005322;28;20041;-74
2022/07/14 01:20:57;;;;;;;6.65;1.90;;;19.30;99.30;;;;;;5010904;28;20394;-73
2022/07/14 01:23:23;;;;;;;2.60;1.40;;;19.30;99.70;;;;;;5012120;28;20053;-74
2022/07/14 01:25:50;;;;;;;3.45;1.60;;;19.20;99.90;;;;;;4992755;28;20224;-74
2022/07/14 01:28:16;;;;;;;2.85;1.63;;;19.30;99.90;;;;;;4993994;28;20054;-73
2022/07/14 01:30:43;;;;;;;3.35;1.50;;;19.20;99.90;;;;;;5009992;28;20045;-73
2022/07/14 01:33:09;;;;;;;2.15;1.70;;;19.30;99.90;;;;;;5011473;28;20072;-73
2022/07/14 01:35:35;;;;;;;3.70;1.40;;;19.30;99.90;;;;;;4960668;28;20056;-75
2022/07/14 01:38:01;;;;;;;3.85;1.38;;;19.30;99.90;;;;;;5011367;28;20050;-74
2022/07/14 01:40:28;;;;;;;3.15;1.98;;;19.30;99.90;;;;;;4992735;28;20048;-74
2022/07/14 01:42:54;;;;;;;3.35;1.63;;;19.20;99.90;;;;;;5010627;28;20049;-74
2022/07/14 01:45:20;;;;;;;3.00;1.50;;;19.20;99.90;;;;;;4993325;28;20046;-74
2022/07/14 01:47:47;;;;;;;4.63;1.85;;;19.20;99.90;;;;;;4996201;28;20503;-73
2022/07/14 01:50:13;;;;;;;2.35;1.50;;;19.10;99.90;;;;;;4996312;28;20038;-74
2022/07/14 01:52:42;;;;;;;6.70;2.25;;;18.90;99.90;;;;;;5012641;28;20045;-73
2022/07/14 01:55:08;;;;;;;4.90;1.65;;;18.90;99.90;;;;;;4996996;28;20045;-75
2022/07/14 01:57:36;;;;;;;4.68;1.80;;;18.90;99.90;;;;;;4995719;28;20045;-74
2022/07/14 02:00:04;;;;;;;4.25;2.03;;;18.90;99.90;;;;;;5007929;28;20038;-74
2022/07/14 02:02:32;;;;;;;2.70;1.60;;;18.90;99.90;;;;;;5002996;28;20428;-76
2022/07/14 02:05:00;;;;;;;3.92;1.98;;;18.90;99.90;;;;;;5029187;28;20423;-73
2022/07/14 02:07:26;;;;;;;4.75;2.22;;;19.00;99.90;;;;;;5014569;28;20522;-73
2022/07/14 02:12:49;;;;;;;3.72;1.55;;;19.00;99.90;;;;;;5012621;28;20494;-73
2022/07/14 02:15:15;;;;;;;4.53;1.70;;;19.00;99.90;;;;;;5013271;28;20512;-74
2022/07/14 02:17:42;;;;;;;1.98;1.55;;;19.00;99.90;;;;;;5008882;28;20089;-74
2022/07/14 02:20:09;;;;;;;3.40;1.75;;;18.90;99.90;;;;;;5013276;28;20059;-74
2022/07/14 02:22:36;;;;;;;3.65;2.42;;;18.80;99.90;;;;;;5008285;28;20053;-74
2022/07/14 02:25:03;;;;;;;3.53;1.73;;;18.70;99.90;;;;;;5011395;28;20030;-73
2022/07/14 02:27:29;;;;;;;3.90;1.98;;;18.50;99.90;;;;;;5006991;28;20053;-73
2022/07/14 02:29:55;;;;;;;3.42;1.95;;;18.30;99.90;;;;;;5011892;28;20056;-73
2022/07/14 02:32:21;;;;;;;3.88;1.80;;;18.20;99.90;;;;;;5012790;28;20522;-73
2022/07/14 02:34:47;;;;;;;3.00;2.25;;;18.00;99.90;;;;;;5013401;28;20053;-77
2022/07/14 02:37:14;;;;;;;3.97;1.40;;;17.90;99.90;;;;;;5014421;28;20045;-73
2022/07/14 02:39:40;;;;;;;3.58;2.05;;;17.90;99.90;;;;;;5010765;28;20046;-73
2022/07/14 02:42:07;;;;;;;4.68;2.17;;;17.80;99.90;;;;;;5013611;28;20041;-74
2022/07/14 02:44:35;;;;;;;2.65;1.52;;;17.90;99.90;;;;;;5012330;28;20049;-74
2022/07/14 02:47:01;;;;;;;4.55;2.25;;;18.10;99.90;;;;;;5012843;28;20045;-73
2022/07/14 02:49:28;;;;;;;2.58;1.92;;;18.30;99.90;;;;;;5012885;28;20033;-74
2022/07/14 02:51:54;;;;;;;4.30;2.05;;;18.30;99.90;;;;;;5013922;28;20029;-76
2022/07/14 02:54:20;;;;;;;3.03;2.00;;;18.40;99.90;;;;;;5013923;28;20049;-73
2022/07/14 02:56:48;;;;;;;4.13;2.35;;;18.40;99.90;;;;;;5012620;28;20046;-76
2022/07/14 02:59:15;;;;;;;4.40;2.63;;;18.40;99.90;;;;;;4991876;28;20042;-73
2022/07/14 03:01:45;;;;;;;;;;;18.40;99.90;;;;;;5012414;28;20049;-73
2022/07/14 03:04:18;;;;;;;4.38;1.95;;;18.30;99.90;;;;;;5029291;28;19917;-74
2022/07/14 03:06:45;;;;;;;3.75;1.75;;;18.20;99.90;;;;;;5011263;28;20379;-74
2022/07/14 03:09:14;;;;;;;4.93;2.47;;;18.10;99.90;;;;;;5007662;28;20046;-74
2022/07/14 03:11:40;;;;;;;4.57;2.03;;;18.10;99.90;;;;;;5013170;28;20030;-74
2022/07/14 03:14:06;;;;;;;3.65;2.60;;;18.00;99.90;;;;;;5012915;28;20033;-73
2022/07/14 03:16:33;;;;;;;7.03;2.75;;;18.00;99.90;;;;;;5012868;28;20057;-78
2022/07/14 03:19:05;;;;;;;3.15;2.50;;;18.00;99.90;;;;;;5023690;28;20042;-75
2022/07/14 03:21:33;;;;;;;4.38;2.97;;;17.90;99.90;;;;;;5012274;28;20045;-74
2022/07/14 03:24:00;;;;;;;3.83;2.30;;;17.70;99.90;;;;;;5011915;28;20042;-73
2022/07/14 03:26:29;;;;;;;3.88;2.40;;;17.50;99.90;;;;;;5010630;28;20085;-73
2022/07/14 03:28:56;;;;;;;3.53;2.20;;;17.50;99.90;;;;;;5023780;28;20065;-74
2022/07/14 03:31:23;;;;;;;6.18;2.15;;;17.50;99.90;;;;;;5013126;28;20042;-73
2022/07/14 03:33:50;;;;;;;3.20;1.90;;;17.50;99.90;;;;;;5020936;28;20057;-74
2022/07/14 03:36:20;;;;;;;1.95;1.65;;;17.60;99.90;;;;;;5010752;28;20049;-73
2022/07/14 03:38:47;;;;;;;5.97;2.45;;;17.60;99.90;;;;;;5010676;28;20046;-73
2022/07/14 03:41:14;;;;;;;3.80;2.10;;;17.40;99.90;;;;;;5013002;28;20459;-73
2022/07/14 03:43:43;;;;;;;4.90;2.63;;;17.40;99.90;;;;;;5010782;28;20394;-73
2022/07/14 03:46:10;;;;;;;6.30;2.70;;;17.30;99.90;;;;;;5011770;28;20037;-73
2022/07/14 03:48:42;;;;;;;3.60;2.85;;;17.30;99.90;;;;;;5023669;28;20042;-74
2022/07/14 03:51:09;;;;;;;4.43;2.42;;;17.30;99.90;;;;;;5011470;28;20046;-75
2022/07/14 03:53:37;;;;;;;3.88;2.03;;;17.30;99.90;;;;;;5010329;28;20514;-73
2022/07/14 03:56:05;;;;;;;5.22;2.30;;;17.30;99.90;;;;;;5014408;28;20506;-74
2022/07/14 03:58:40;;;;;;;3.63;2.63;;;17.30;99.90;;;;;;5026847;28;20042;-73
2022/07/14 04:01:06;;;;;;;3.35;2.10;;;17.30;99.90;;;;;;5011119;28;20399;-73
2022/07/14 04:03:33;;;;;;;3.33;2.40;;;17.40;99.90;;;;;;5011005;28;20359;-73
2022/07/14 04:06:01;;;;;;;4.63;2.53;;;17.50;99.90;;;;;;5009991;28;20045;-73
2022/07/14 04:08:27;;;;;;;5.68;2.40;;;17.60;99.90;;;;;;5006728;28;20380;-74
2022/07/14 04:11:02;;;;;;;3.80;2.38;;;17.50;99.90;;;;;;5003032;28;20053;-73
2022/07/14 04:13:29;;;;;;;2.97;2.42;;;17.60;99.90;;;;;;5011976;28;20049;-74
2022/07/14 04:15:55;;;;;;;3.00;2.15;;;17.70;99.90;;;;;;5013212;28;20057;-72
2022/07/14 04:18:22;;;;;;;5.00;2.40;;;17.80;99.90;;;;;;5010857;28;20038;-74
2022/07/14 04:20:51;;;;;;;4.05;2.80;;;17.90;99.90;;;;;;5022965;28;20038;-72
2022/07/14 04:23:18;;;;;;;4.03;2.70;;;17.90;99.90;;;;;;5010276;28;20403;-73
2022/07/14 04:25:45;;;;;;;3.95;2.53;;;18.10;99.90;;;;;;5011402;28;20038;-73
2022/07/14 04:28:11;;;;;;;4.47;2.45;;;18.30;99.90;;;;;;5011912;28;20037;-72
2022/07/14 04:30:39;;;;;;;4.97;2.42;;;18.40;99.90;;;;;;5009170;28;20044;-73
2022/07/14 04:33:06;;;;;;;7.05;2.72;;;18.60;99.90;;;;;;5013821;28;20053;-73
2022/07/14 04:35:34;;;;;;;9.20;2.65;;;18.40;99.90;;;;;;5009352;28;20416;-77
2022/07/14 04:38:01;;;;;;;3.28;1.85;;;18.40;99.90;;;;;;5009737;28;20045;-73
2022/07/14 04:40:32;;;;;;;2.80;2.13;;;18.50;99.90;;;;;;5010843;28;20049;-74
2022/07/14 04:42:59;;;;;;;4.40;2.35;;;19.10;99.90;;;;;;5011191;28;20050;-73
2022/07/14 04:45:26;;;;;;;2.22;1.70;;;20.30;99.90;;;;;;5009745;28;20046;-74
2022/07/14 04:47:53;;;;;;;3.28;2.05;;;21.30;98.00;;;;;;5009863;28;20038;-74
2022/07/14 04:53:05;;;;;;;5.30;2.35;;;21.80;95.60;;;;;;5021021;28;20044;-74
2022/07/14 04:55:49;;;;;;;3.10;1.92;;;21.00;97.30;;;;;;5002510;28;20487;-74
2022/07/14 04:58:28;;;;;;;5.55;2.10;;;20.50;98.70;;;;;;5004490;28;20049;-74
2022/07/14 05:00:58;;;;;;;2.95;1.90;;;20.10;99.90;;;;;;4990821;28;20057;-73
2022/07/14 05:03:26;;;;;;;4.70;1.50;;;19.90;99.90;;;;;;5009120;28;20053;-73
2022/07/14 05:05:53;;;;;;;6.68;1.90;;;20.00;99.70;;;;;;5008034;28;20049;-73
2022/07/14 05:08:19;;;;;;;6.97;2.15;;;20.20;99.40;;;;;;5011729;28;20378;-74
2022/07/14 05:10:49;;;;;;;9.20;2.20;;;20.40;98.40;;;;;;4993014;28;20046;-74
2022/07/14 05:13:15;;;;;;;4.45;1.60;;;20.50;98.20;;;;;;5010491;28;20296;-74
2022/07/14 05:15:42;;;;;;;4.22;1.80;;;20.60;97.70;;;;;;5022708;28;20042;-75
2022/07/14 05:18:09;;;;;;;6.50;1.75;;;20.50;98.60;;;;;;5035129;28;20045;-74
2022/07/14 05:20:37;;;;;;;4.60;1.95;;;20.30;99.00;;;;;;5011319;28;20470;-73
2022/07/14 05:23:03;;;;;;;3.80;1.88;;;20.30;99.70;;;;;;5014994;28;20030;-74
2022/07/14 05:25:30;;;;;;;3.10;1.40;;;20.40;99.50;;;;;;5011325;28;20049;-74
2022/07/14 05:27:56;;;;;;;4.25;1.75;;;20.40;98.80;;;;;;5029983;28;20033;-74
2022/07/14 05:30:29;;;;;;;3.95;1.55;;;20.40;99.10;;;;;;5015051;28;20038;-73
2022/07/14 05:32:59;;;;;;;4.40;1.60;;;20.50;98.90;;;;;;5017377;28;20403;-75
2022/07/14 05:35:27;;;;;;;4.10;1.70;;;20.60;98.90;;;;;;5013031;28;20057;-74
2022/07/14 05:37:56;;;;;;;4.07;1.83;;;20.70;98.20;;;;;;5017094;28;20502;-74
2022/07/14 05:40:22;;;;;;;3.83;2.53;;;20.70;98.80;;;;;;5023257;28;20039;-75
2022/07/14 05:42:49;;;;;;;7.15;1.92;;;20.50;99.30;;;;;;5023252;28;20065;-75
2022/07/14 05:45:16;;;;;;;8.23;2.13;;;20.40;99.80;;;;;;5000502;28;20050;-77
2022/07/14 05:47:43;;;;;;;8.70;1.90;;;20.50;99.40;;;;;;5010537;28;20502;-76
2022/07/14 05:50:10;;;;;;;4.25;1.83;;;20.70;99.20;;;;;;5013028;28;20056;-74
2022/07/14 05:52:36;;;;;;;4.43;2.00;;;20.90;98.60;;;;;;5012900;28;20045;-77
2022/07/14 05:55:03;;;;;;;6.95;2.00;;;21.30;98.10;;;;;;5023683;28;20049;-75
2022/07/14 05:57:30;;;;;;;9.88;2.10;;;21.90;96.60;;;;;;5006017;28;20052;-74
2022/07/14 05:59:57;;;;;;;5.82;1.92;;;22.40;96.50;;;;;;5012966;28;20045;-75
2022/07/14 06:02:23;;;;;;;5.25;1.80;;;22.30;95.40;;;;;;5012557;28;20053;-75
2022/07/14 06:04:49;;;;;;;6.47;2.15;;;22.10;95.50;;;;;;5029624;28;20501;-75
2022/07/14 06:07:15;;;;;;;5.38;2.03;;;22.30;95.00;;;;;;5011604;28;20044;-74
2022/07/14 06:09:50;;;;;;;4.03;1.85;;;22.70;93.40;;;;;;5014176;28;20471;-75
2022/07/14 06:12:18;;;;;;;3.88;1.50;;;23.80;92.20;;;;;;5026152;28;20529;-74
2022/07/14 06:14:45;;;;;;;6.22;2.22;;;24.20;88.90;;;;;;5004963;28;20048;-75
2022/07/14 06:17:14;;;;;;;4.80;2.08;;;24.10;86.60;;;;;;5006827;28;20046;-78
2022/07/14 06:19:41;;;;;;;9.23;2.97;;;23.70;88.70;;;;;;5013522;28;20041;-74
2022/07/14 06:22:08;;;;;;;5.45;2.25;;;23.80;87.60;;;;;;5014809;28;20034;-75
2022/07/14 06:24:39;;;;;;;4.43;2.10;;;24.10;86.50;;;;;;5012842;28;20046;-78
2022/07/14 06:27:06;;;;;;;7.63;2.40;;;25.10;85.10;;;;;;5015186;28;20041;-75
2022/07/14 06:29:33;;;;;;;5.43;2.33;;;25.60;80.70;;;;;;5029404;28;20065;-75
2022/07/14 06:31:59;;;;;;;5.65;1.95;;;25.30;79.70;;;;;;5011880;28;20049;-77
2022/07/14 06:34:25;;;;;;;3.35;2.35;;;25.00;81.70;;;;;;5013623;28;20045;-75
2022/07/14 06:37:03;;;;;;;6.45;2.10;;;24.60;84.90;;;;;;5012072;28;20471;-76
2022/07/14 06:39:34;;;;;;;4.90;2.00;;;24.50;84.60;;;;;;5013769;28;20479;-76
2022/07/14 06:42:03;;;;;;;9.02;4.03;;;24.40;84.30;;;;;;5013484;28;20045;-77
2022/07/14 06:44:40;;;;;;;6.50;2.80;;;24.00;86.30;;;;;;5005962;28;20052;-77
2022/07/14 06:47:06;;;;;;;6.80;2.85;;;24.10;87.00;;;;;;5021234;28;20045;-75
2022/07/14 06:49:33;;;;;;;7.07;2.50;;;24.80;88.30;;;;;;5013287;28;20029;-76
2022/07/14 06:51:59;;;;;;;5.55;2.20;;;25.70;80.90;;;;;;5012422;28;20395;-78
2022/07/14 06:54:25;;;;;;;7.60;2.65;;;26.20;77.90;;;;;;5012170;28;20046;-75
2022/07/14 06:56:52;;;;;;;7.00;2.20;;;26.50;76.70;;;;;;5012442;28;20045;-74
2022/07/14 06:59:18;;;;;;;5.82;1.70;;;26.70;74.10;;;;;;5014539;28;20045;-75
2022/07/14 07:01:44;;;;;;;3.85;1.88;;;26.40;71.50;;;;;;5013873;28;20046;-78
2022/07/14 07:04:11;;;;;;;4.05;1.65;;;26.10;71.80;;;;;;5012981;28;20041;-75
2022/07/14 07:06:45;;;;;;;2.42;1.85;;;25.50;74.20;;;;;;5012105;28;20408;-81
2022/07/14 07:09:15;;;;;;;5.30;2.30;;;25.20;74.70;;;;;;5013818;28;20037;-76
2022/07/14 07:11:43;;;;;;;5.22;1.88;;;25.10;76.60;;;;;;5013058;28;20025;-76
2022/07/14 07:14:10;;;;;;;4.50;1.83;;;25.30;76.60;;;;;;5012657;28;20049;-76
2022/07/14 07:16:36;;;;;;;4.85;2.45;;;26.10;76.90;;;;;;5009933;28;20034;-76
2022/07/14 07:19:03;;;;;;;5.22;1.95;;;27.80;69.90;;;;;;5000913;28;20042;-74
2022/07/14 07:21:30;;;;;;;4.75;1.75;;;28.30;67.00;;;;;;5010405;28;20041;-76
2022/07/14 07:23:57;;;;;;;4.82;1.52;;;28.40;65.00;;;;;;5013298;28;20364;-76
2022/07/14 07:26:26;;;;;;;4.03;1.58;;;28.10;64.00;;;;;;5011955;28;20392;-75
2022/07/14 07:28:53;;;;;;;6.82;1.85;;;27.70;64.50;;;;;;5013026;28;20118;-75
2022/07/14 07:31:20;;;;;;;3.58;1.73;;;27.30;64.30;;;;;;5013732;28;20048;-75
2022/07/14 07:33:47;;;;;;;3.28;1.40;;;26.60;66.90;;;;;;5012866;28;20053;-75
2022/07/14 07:36:13;;;;;;;4.18;1.90;;;26.00;68.50;;;;;;5011646;28;20038;-79
2022/07/14 07:38:40;;;;;;;3.30;1.30;;;25.70;69.00;;;;;;5013290;28;20030;-75
2022/07/14 07:41:06;;;;;;;5.55;2.30;;;25.50;69.40;;;;;;5013389;28;20038;-75
2022/07/14 07:43:32;;;;;;;4.90;2.15;;;25.30;70.30;;;;;;5011376;28;20050;-75
2022/07/14 07:45:59;;;;;;;3.88;2.05;;;25.00;72.20;;;;;;5011109;28;20029;-75
2022/07/14 07:48:25;;;;;;;7.40;2.53;;;24.80;72.40;;;;;;5013099;28;20041;-75
2022/07/14 07:50:51;;;;;;;5.60;2.38;;;24.90;74.10;;;;;;5012709;28;20022;-75
2022/07/14 07:53:17;;;;;;;6.85;2.20;;;25.50;75.10;;;;;;5013076;28;20041;-76
2022/07/14 07:55:44;;;;;;;7.20;2.88;;;25.80;72.10;;;;;;5005062;28;20053;-75
2022/07/14 07:58:10;;;;;;;6.38;2.08;;;26.50;73.70;;;;;;5012355;28;20030;-76
2022/07/14 08:00:36;;;;;;;9.65;3.55;;;27.30;66.20;;;;;;5012791;28;20037;-76
2022/07/14 08:03:03;;;;;;;11.00;5.13;;;27.20;67.20;;;;;;5012128;28;20050;-76
2022/07/14 08:05:31;;;;;;;8.48;3.65;;;28.30;66.50;;;;;;5011770;28;20042;-76
2022/07/14 08:07:57;;;;;;;6.90;2.72;;;28.60;62.30;;;;;;5012083;28;20038;-76
2022/07/14 08:10:24;;;;;;;5.00;2.58;;;28.40;61.60;;;;;;5012896;28;20041;-76
2022/07/14 08:12:50;;;;;;;4.97;2.05;;;28.20;62.10;;;;;;5011972;28;20037;-79
2022/07/14 08:15:19;;;;;;;3.55;1.60;;;28.10;61.80;;;;;;5011021;28;20769;-76
2022/07/14 08:17:45;;;;;;;4.38;1.90;;;27.80;63.40;;;;;;5012270;28;20030;-77
2022/07/14 08:20:12;;;;;;;7.72;1.98;;;28.30;62.60;;;;;;5012563;28;20030;-76
2022/07/14 08:22:39;;;;;;;4.85;1.65;;;28.30;60.60;;;;;;5011355;28;20025;-78
2022/07/14 08:25:07;;;;;;;3.58;1.70;;;28.70;61.10;;;;;;5009989;28;20048;-76
2022/07/14 08:27:35;;;;;;;3.27;1.50;;;28.00;60.50;;;;;;5008072;28;21274;-76
2022/07/14 08:30:01;;;;;;;8.30;1.90;;;28.60;59.40;;;;;;5013481;28;20612;-76
2022/07/14 08:32:42;;;;;;;6.22;1.23;;;29.30;59.10;;;;;;4998627;28;20046;-76
2022/07/14 08:35:11;;;;;;;2.92;1.33;;;29.00;58.30;;;;;;5013004;28;20046;-76
2022/07/14 08:37:37;;;;;;;5.03;1.38;;;29.50;59.40;;;;;;5008635;28;20407;-76
2022/07/14 08:40:09;;;;;;;4.10;2.30;;;29.60;56.90;;;;;;4999667;28;20474;-76
2022/07/14 08:42:37;;;;;;;9.60;2.00;;;29.00;57.20;;;;;;5018499;28;20022;-77
2022/07/14 08:45:12;;;;;;;7.65;2.03;;;28.40;58.30;;;;;;4979506;28;20033;-78
2022/07/14 08:47:39;;;;;;;6.18;1.42;;;27.80;59.00;;;;;;5014656;28;20505;-79
2022/07/14 08:50:07;;;;;;;3.05;1.30;;;27.60;60.40;;;;;;4998755;28;20037;-78
2022/07/14 08:52:33;;;;;;;2.80;1.10;;;27.00;60.60;;;;;;5020569;28;20049;-76
2022/07/14 08:55:00;;;;;;;4.35;1.08;;;26.90;61.80;;;;;;5010270;28;20034;-76
2022/07/14 08:57:27;;;;;;;5.57;1.48;;;27.70;60.60;;;;;;4988112;28;20372;-76
2022/07/14 08:59:53;;;;;;;3.75;1.80;;;27.90;60.00;;;;;;5010653;28;20038;-76
2022/07/14 09:02:19;;;;;;;8.10;1.42;;;28.20;59.40;;;;;;5011166;28;20046;-76
2022/07/14 09:04:46;;;;;;;3.97;1.23;;;29.10;58.60;;;;;;5009670;28;20065;-77
2022/07/14 09:07:30;;;;;;;1.77;1.20;;;29.10;58.60;;;;;;5010714;28;20502;-76
2022/07/14 09:10:07;;;;;;;6.68;1.58;;;29.20;56.80;;;;;;5011472;28;20029;-78
2022/07/14 09:12:35;;;;;;;3.83;1.33;;;28.50;57.20;;;;;;5010656;28;20038;-77
2022/07/14 09:18:04;;;;;;;3.00;1.20;;;30.20;56.20;;;;;;4930883;29;20512;-77
2022/07/14 09:20:36;;;;;;;6.38;2.05;;;29.70;55.30;;;;;;4995586;28;20482;-76
2022/07/14 09:23:04;;;;;;;3.60;1.58;;;29.30;55.10;;;;;;5011200;28;20475;-77
2022/07/14 09:25:34;;;;;;;2.50;1.40;;;29.50;56.40;;;;;;5010433;28;20034;-77
2022/07/14 09:28:01;;;;;;;5.15;1.67;;;29.60;55.60;;;;;;5011118;28;20618;-78
2022/07/14 09:30:28;;;;;;;2.90;1.35;;;29.30;55.40;;;;;;5010896;28;20037;-77
2022/07/14 09:33:03;;;;;;;6.45;1.80;;;29.50;54.70;;;;;;5011119;28;20038;-76
2022/07/14 09:35:36;;;;;;;10.00;2.05;;;29.20;55.80;;;;;;5010035;28;20042;-76
2022/07/14 09:38:23;;;;;;;10.85;1.88;;;30.20;54.80;;;;;;5010533;28;20467;-77
2022/07/14 09:40:50;;;;;;;6.15;1.30;;;30.10;54.30;;;;;;5005761;28;20030;-77
2022/07/14 09:43:17;;;;;;;2.20;1.30;;;30.00;54.70;;;;;;5011807;28;20033;-74
2022/07/14 09:45:46;;;;;;;2.65;1.42;;;29.90;55.10;;;;;;5006327;28;20410;-74
2022/07/14 09:48:20;;;;;;;3.45;1.20;;;29.90;53.70;;;;;;5010371;28;20364;-74
2022/07/14 09:51:01;;;;;;;4.60;1.55;;;30.10;53.70;;;;;;5009435;28;20045;-73
2022/07/14 09:53:31;;;;;;;2.53;1.50;;;30.30;53.00;;;;;;5011273;28;20037;-74
2022/07/14 09:56:04;;;;;;;2.67;1.33;;;30.50;53.90;;;;;;5009444;28;20462;-74
2022/07/14 09:58:41;;;;;;;5.38;1.85;;;30.30;54.50;;;;;;4993827;28;20513;-73
2022/07/14 10:01:16;;;;;;;5.53;1.63;;;29.20;54.60;;;;;;5011465;28;20098;-74
2022/07/14 10:03:46;;;;;;;5.22;2.00;;;28.40;56.20;;;;;;5009946;28;20050;-74
2022/07/14 10:06:13;;;;;;;4.60;1.35;;;28.90;55.30;;;;;;5008838;28;20475;-74
2022/07/14 10:08:43;;;;;;;4.85;1.83;;;29.20;55.40;;;;;;5013871;28;20375;-76
2022/07/14 10:11:10;;;;;;;;;;;29.10;56.10;;;;;;5015364;28;20041;-74
2022/07/14 10:13:37;;;;;;;2.63;1.38;;;29.00;55.00;;;;;;5013690;28;19916;-75
2022/07/14 10:16:04;;;;;;;5.38;2.58;;;28.60;55.10;;;;;;5011991;28;20045;-75
2022/07/14 10:18:32;;;;;;;3.35;1.92;;;28.50;55.70;;;;;;5014978;28;20382;-73
2022/07/14 10:20:59;;;;;;;10.15;2.13;;;28.40;56.30;;;;;;5014138;28;20061;-74
2022/07/14 10:23:29;;;;;;;4.38;1.65;;;28.90;55.50;;;;;;5014876;28;20030;-73
2022/07/14 10:25:57;;;;;;;4.63;2.03;;;29.30;54.10;;;;;;5011034;28;20042;-75
2022/07/14 10:28:24;;;;;;;4.63;1.65;;;29.50;54.50;;;;;;5011409;28;20033;-73
2022/07/14 10:31:10;;;;;;;2.25;1.40;;;30.80;52.80;;;;;;5013639;28;20032;-73
2022/07/14 10:33:42;;;;;;;2.35;1.27;;;30.10;53.20;;;;;;5004818;28;20480;-74
2022/07/14 10:36:47;;;;;;;5.85;1.50;;;29.40;53.80;;;;;;5013123;28;20490;-74
2022/07/14 10:39:20;;;;;;;5.35;1.27;;;28.90;55.00;;;;;;5019216;28;20117;-74
2022/07/14 10:42:10;;;;;;;2.60;1.63;;;29.20;55.80;;;;;;5025258;28;20045;-75
2022/07/14 10:44:42;;;;;;;5.55;1.70;;;29.30;53.50;;;;;;5019821;28;20045;-78
2022/07/14 10:47:14;;;;;;;3.63;1.73;;;29.30;53.50;;;;;;5014323;28;20038;-77
2022/07/14 10:50:01;;;;;;;5.40;1.45;;;29.20;53.70;;;;;;5013993;28;20045;-81
2022/07/14 10:52:30;;;;;;;2.65;1.50;;;29.10;54.00;;;;;;5014827;28;20034;-79
2022/07/14 10:55:08;;;;;;;3.13;1.63;;;29.30;54.30;;;;;;5012413;28;20037;-78
2022/07/14 10:57:34;;;;;;;6.07;1.98;;;29.50;54.40;;;;;;5014149;28;20411;-79
2022/07/14 11:00:01;;;;;;;6.03;1.65;;;29.90;52.70;;;;;;5013277;28;20025;-77
2022/07/14 11:02:29;;;;;;;5.85;1.60;;;29.60;52.80;;;;;;5014679;28;20050;-78
2022/07/14 11:05:06;;;;;;;3.28;1.35;;;29.60;53.90;;;;;;5012555;28;20049;-79
2022/07/14 11:07:38;;;;;;;3.35;1.55;;;29.90;53.30;;;;;;5013944;28;20034;-78
2022/07/14 11:10:27;;;;;;;3.95;1.52;;;29.90;53.20;;;;;;5013293;28;20030;-79
2022/07/14 11:12:59;;;;;;;3.73;1.37;;;29.90;53.00;;;;;;5009891;28;20391;-78
2022/07/14 11:15:35;;;;;;;2.92;1.45;;;29.30;54.10;;;;;;5012545;28;20046;-78
2022/07/14 11:18:26;;;;;;;6.25;1.52;;;29.20;53.70;;;;;;5011980;28;20040;-80
2022/07/14 11:20:58;;;;;;;4.57;1.77;;;28.90;54.10;;;;;;5012549;28;20040;-80
2022/07/14 11:23:50;;;;;;;2.85;1.63;;;29.00;53.90;;;;;;5021329;28;20038;-79
2022/07/14 11:26:37;;;;;;;2.53;1.20;;;29.00;54.30;;;;;;5012762;28;20049;-80
2022/07/14 11:29:05;;;;;;;8.05;2.08;;;29.30;54.10;;;;;;5023470;28;20025;-79
2022/07/14 11:31:47;;;;;;;4.10;1.85;;;29.50;53.80;;;;;;5021926;28;20430;-79
2022/07/14 11:37:12;;;;;;;3.72;1.30;;;29.20;53.80;;;;;;5020241;28;20053;-80
2022/07/14 11:39:40;;;;;;;2.95;1.80;;;29.10;54.10;;;;;;5021258;28;20022;-79
2022/07/14 11:42:11;;;;;;;4.03;1.73;;;29.30;53.80;;;;;;5017682;28;20034;-80
2022/07/14 11:44:40;;;;;;;4.55;2.25;;;29.10;54.00;;;;;;5020949;28;20037;-82
2022/07/14 11:47:17;;;;;;;8.20;2.53;;;29.10;53.70;;;;;;5022296;28;20029;-81
2022/07/14 11:49:57;;;;;;;5.00;1.55;;;29.20;54.10;;;;;;5021106;28;20280;-79
2022/07/14 11:52:30;;;;;;;3.35;1.77;;;29.10;54.20;;;;;;5019551;28;20038;-82
2022/07/14 11:54:58;;;;;;;6.28;1.80;;;29.40;54.00;;;;;;5012426;28;20037;-80
2022/07/14 11:57:25;;;;;;;8.55;2.38;;;29.30;55.80;;;;;;5020594;28;20040;-80
2022/07/14 11:59:53;;;;;;;2.88;1.65;;;29.40;54.80;;;;;;5015000;28;20042;-80
2022/07/14 12:02:21;;;;;;;13.48;3.03;;;29.40;53.70;;;;;;5021613;28;20471;-77
2022/07/14 12:04:59;;;;;;;8.05;2.35;;;29.10;54.20;;;;;;5002146;28;20038;-79
2022/07/14 12:07:47;;;;;;;7.40;2.17;;;28.90;54.30;;;;;;5018739;28;20105;-80
2022/07/14 12:10:15;;;;;;;5.80;1.70;;;29.20;54.40;;;;;;5019249;28;20056;-79
2022/07/14 12:12:45;;;;;;;4.90;1.80;;;29.50;54.00;;;;;;5020019;28;20037;-80
2022/07/14 12:15:22;;;;;;;2.92;1.88;;;29.50;54.00;;;;;;5019243;28;20471;-78
2022/07/14 12:17:50;;;;;;;2.85;1.42;;;29.30;54.10;;;;;;5019620;28;20029;-77
2022/07/14 12:20:16;;;;;;;5.80;1.95;;;29.60;54.20;;;;;;5013178;28;20038;-80
2022/07/14 12:22:54;;;;;;;2.75;1.77;;;29.50;53.60;;;;;;4989733;28;20042;-79
2022/07/14 12:25:33;;;;;;;7.40;2.20;;;29.30;54.30;;;;;;5003008;28;20052;-85
2022/07/14 12:28:00;;;;;;;4.55;2.13;;;29.70;54.10;;;;;;5011829;28;20038;-80
2022/07/14 12:30:47;;;;;;;2.47;1.60;;;29.80;53.90;;;;;;5011005;28;20030;-80
2022/07/14 12:33:36;;;;;;;4.38;1.70;;;30.20;53.40;;;;;;5009337;28;20041;-77
2022/07/14 12:36:03;;;;;;;4.17;1.63;;;30.20;52.90;;;;;;5010171;28;20041;-77
2022/07/14 12:38:33;;;;;;;6.15;2.42;;;30.10;53.50;;;;;;5005961;28;20050;-77
2022/07/14 12:41:02;;;;;;;4.57;2.00;;;30.30;53.50;;;;;;5005127;28;20491;-75
2022/07/14 12:43:35;;;;;;;3.93;1.80;;;30.30;53.10;;;;;;5007160;28;20407;-75
2022/07/14 12:46:03;;;;;;;5.70;2.20;;;30.10;53.40;;;;;;5004753;28;20670;-76
2022/07/14 12:48:55;;;;;;;6.35;2.15;;;30.20;53.40;;;;;;5012010;28;20030;-79
2022/07/14 12:51:29;;;;;;;3.28;1.70;;;30.20;53.50;;;;;;5009655;28;20490;-76
2022/07/14 12:54:09;;;;;;;3.10;2.10;;;30.20;53.80;;;;;;5011820;28;20040;-78
2022/07/14 12:56:35;;;;;;;2.92;2.13;;;29.80;54.20;;;;;;4986758;28;20045;-75
2022/07/14 12:59:04;;;;;;;2.25;1.85;;;29.70;54.40;;;;;;5016603;28;20216;-76
2022/07/14 13:01:30;;;;;;;5.60;2.27;;;29.90;54.40;;;;;;5015006;28;20034;-76
2022/07/14 13:04:02;;;;;;;6.00;1.85;;;30.30;54.70;;;;;;5011105;28;20041;-76
2022/07/14 13:06:44;;;;;;;3.83;1.92;;;30.60;53.50;;;;;;5010158;28;20029;-75
2022/07/14 13:09:17;;;;;;;4.93;1.70;;;30.90;54.00;;;;;;5005114;28;20026;-81